Time,TemperatureF,DewpointF,PressureIn,WindDirection,WindDirectionDegrees,WindSpeedMPH,WindSpeedGustMPH,Humidity,HourlyPrecipIn,Conditions,Clouds,dailyrainin,SoftwareType,DateUTC
2013-08-24 00:02:00,59.0,52.5,29.78,SSE,163,0.0,0.0,79,0.00,,,0.00,Wunderground v.1.15,2013-08-24 07:02:00,
2013-08-24 00:08:00,58.7,52.5,29.79,SSE,163,0.0,0.0,80,0.00,,,0.00,Wunderground v.1.15,2013-08-24 07:08:00,
2013-08-24 00:13:00,58.5,52.4,29.79,SSE,163,0.0,0.0,80,0.00,,,0.00,Wunderground v.1.15,2013-08-24 07:13:00,
2013-08-24 00:19:00,58.2,52.1,29.79,SSE,163,0.0,0.0,80,0.00,,,0.00,Wunderground v.1.15,2013-08-24 07:19:00,
2013-08-24 00:25:00,58.0,51.9,29.79,SSE,163,0.0,0.0,80,0.00,,,0.00,Wunderground v.1.15,2013-08-24 07:25:00,
2013-08-24 00:31:00,57.8,52.0,29.79,SSE,163,0.0,0.0,81,0.00,,,0.00,Wunderground v.1.15,2013-08-24 07:31:00,
2013-08-24 00:38:00,57.7,51.9,29.79,SSE,163,0.0,0.0,81,0.00,,,0.00,Wunderground v.1.15,2013-08-24 07:38:00,
2013-08-24 00:44:00,57.6,51.8,29.79,SSE,163,0.0,0.0,81,0.00,,,0.00,Wunderground v.1.15,2013-08-24 07:44:00,
2013-08-24 00:49:00,57.5,51.7,29.79,SSE,163,0.0,0.0,81,0.00,,,0.00,Wunderground v.1.15,2013-08-24 07:49:00,
2013-08-24 00:55:00,57.3,51.5,29.79,SSE,163,0.0,0.0,81,0.00,,,0.00,Wunderground v.1.15,2013-08-24 07:55:00,
2013-08-24 01:01:00,57.1,51.3,29.79,SSE,163,0.0,0.0,81,0.00,,,0.00,Wunderground v.1.15,2013-08-24 08:01:00,
2013-08-24 01:08:00,56.9,51.1,29.80,SSE,163,0.0,0.0,81,0.00,,,0.00,Wunderground v.1.15,2013-08-24 08:08:00,
2013-08-24 01:13:00,56.7,51.3,29.79,SSE,163,0.0,0.0,82,0.00,,,0.00,Wunderground v.1.15,2013-08-24 08:13:00,
2013-08-24 01:19:00,56.5,51.1,29.79,SSE,163,0.0,0.0,82,0.00,,,0.00,Wunderground v.1.15,2013-08-24 08:19:00,
2013-08-24 01:25:00,56.3,50.9,29.79,SSE,163,0.0,0.0,82,0.00,,,0.00,Wunderground v.1.15,2013-08-24 08:25:00,
2013-08-24 01:31:00,56.2,50.8,29.80,SSE,163,0.0,0.0,82,0.00,,,0.00,Wunderground v.1.15,2013-08-24 08:31:00,
2013-08-24 01:37:00,56.1,50.7,29.79,SSE,163,0.0,0.0,82,0.00,,,0.00,Wunderground v.1.15,2013-08-24 08:37:00,
2013-08-24 01:43:00,55.9,50.5,29.80,SSE,163,0.0,0.0,82,0.00,,,0.00,Wunderground v.1.15,2013-08-24 08:43:00,
2013-08-24 01:49:00,55.8,50.7,29.80,SSE,163,0.0,0.0,83,0.00,,,0.00,Wunderground v.1.15,2013-08-24 08:49:00,
2013-08-24 01:55:00,55.6,50.5,29.80,SSE,163,0.0,0.0,83,0.00,,,0.00,Wunderground v.1.15,2013-08-24 08:55:00,
2013-08-24 02:01:00,55.5,50.4,29.79,SSE,163,0.0,0.0,83,0.00,,,0.00,Wunderground v.1.15,2013-08-24 09:01:00,
2013-08-24 02:07:00,55.3,50.2,29.79,SSE,163,0.0,0.0,83,0.00,,,0.00,Wunderground v.1.15,2013-08-24 09:07:00,
2013-08-24 02:13:00,55.3,50.2,29.79,SSE,163,0.0,0.0,83,0.00,,,0.00,Wunderground v.1.15,2013-08-24 09:13:00,
2013-08-24 02:19:00,55.2,50.4,29.79,SSE,163,0.0,0.0,84,0.00,,,0.00,Wunderground v.1.15,2013-08-24 09:19:00,
2013-08-24 02:25:00,55.1,50.4,29.79,SSE,163,0.0,0.0,84,0.00,,,0.00,Wunderground v.1.15,2013-08-24 09:25:00,
2013-08-24 02:31:00,55.0,49.9,29.79,SSE,163,0.0,0.0,83,0.00,,,0.00,Wunderground v.1.15,2013-08-24 09:31:00,
2013-08-24 02:38:00,54.9,49.8,29.79,SSE,163,0.0,0.0,83,0.00,,,0.00,Wunderground v.1.15,2013-08-24 09:38:00,
2013-08-24 02:43:00,54.8,50.1,29.79,SSE,163,0.0,0.0,84,0.00,,,0.00,Wunderground v.1.15,2013-08-24 09:43:00,
2013-08-24 02:49:00,54.7,50.0,29.80,SSE,163,0.0,0.0,84,0.00,,,0.00,Wunderground v.1.15,2013-08-24 09:49:00,
2013-08-24 02:55:00,54.5,49.8,29.79,SSE,163,0.0,0.0,84,0.00,,,0.00,Wunderground v.1.15,2013-08-24 09:55:00,
2013-08-24 03:01:00,54.4,49.7,29.79,SSE,163,0.0,0.0,84,0.00,,,0.00,Wunderground v.1.15,2013-08-24 10:01:00,
2013-08-24 03:08:00,54.3,49.6,29.80,SSE,163,0.0,0.0,84,0.00,,,0.00,Wunderground v.1.15,2013-08-24 10:08:00,
2013-08-24 03:13:00,54.2,49.5,29.79,SSE,163,0.0,0.0,84,0.00,,,0.00,Wunderground v.1.15,2013-08-24 10:13:00,
2013-08-24 03:19:00,54.1,49.4,29.79,SSE,163,0.0,0.0,84,0.00,,,0.00,Wunderground v.1.15,2013-08-24 10:19:00,
2013-08-24 03:25:00,53.9,49.2,29.80,SSE,163,0.0,0.0,84,0.00,,,0.00,Wunderground v.1.15,2013-08-24 10:25:00,
2013-08-24 03:31:00,53.8,49.1,29.79,SSE,163,0.0,0.0,84,0.00,,,0.00,Wunderground v.1.15,2013-08-24 10:31:00,
2013-08-24 03:37:00,53.7,49.0,29.79,SSE,163,0.0,0.0,84,0.00,,,0.00,Wunderground v.1.15,2013-08-24 10:37:00,
2013-08-24 03:43:00,53.7,49.3,29.80,SSE,163,0.0,0.0,85,0.00,,,0.00,Wunderground v.1.15,2013-08-24 10:43:00,
2013-08-24 03:49:00,53.7,49.3,29.80,SSE,163,0.0,0.0,85,0.00,,,0.00,Wunderground v.1.15,2013-08-24 10:49:00,
2013-08-24 03:55:00,53.7,49.3,29.79,SSE,163,0.0,0.0,85,0.00,,,0.00,Wunderground v.1.15,2013-08-24 10:55:00,
2013-08-24 04:01:00,54.4,50.3,29.79,SSE,163,0.0,0.0,86,0.00,,,0.00,Wunderground v.1.15,2013-08-24 11:01:00,
2013-08-24 04:07:00,55.0,50.9,29.79,SSE,163,0.0,0.0,86,0.00,,,0.00,Wunderground v.1.15,2013-08-24 11:07:00,
2013-08-24 04:13:00,54.9,50.8,29.80,SSE,163,0.0,0.0,86,0.00,,,0.00,Wunderground v.1.15,2013-08-24 11:13:00,
2013-08-24 04:19:00,54.6,50.2,29.79,SSE,163,0.0,0.0,85,0.00,,,0.00,Wunderground v.1.15,2013-08-24 11:19:00,
2013-08-24 04:25:00,54.1,49.7,29.79,SSE,163,0.0,0.0,85,0.00,,,0.00,Wunderground v.1.15,2013-08-24 11:25:00,
2013-08-24 04:31:00,53.9,49.5,29.79,SSE,163,0.0,0.0,85,0.00,,,0.00,Wunderground v.1.15,2013-08-24 11:31:00,
2013-08-24 04:37:00,53.7,49.3,29.79,SSE,163,0.0,0.0,85,0.00,,,0.00,Wunderground v.1.15,2013-08-24 11:37:00,
2013-08-24 04:43:00,53.6,49.2,29.79,SSE,163,0.0,0.0,85,0.00,,,0.00,Wunderground v.1.15,2013-08-24 11:43:00,
2013-08-24 04:49:00,53.3,48.9,29.79,SSE,163,0.0,0.0,85,0.00,,,0.00,Wunderground v.1.15,2013-08-24 11:49:00,
2013-08-24 04:55:00,53.2,48.8,29.80,SSE,163,0.0,0.0,85,0.00,,,0.00,Wunderground v.1.15,2013-08-24 11:55:00,
2013-08-24 05:01:00,53.0,48.6,29.80,SSE,163,0.0,0.0,85,0.00,,,0.00,Wunderground v.1.15,2013-08-24 12:01:00,
2013-08-24 05:07:00,52.8,48.4,29.80,SSE,163,0.0,0.0,85,0.00,,,0.00,Wunderground v.1.15,2013-08-24 12:07:00,
2013-08-24 05:13:00,52.7,48.3,29.80,SSE,163,0.0,0.0,85,0.00,,,0.00,Wunderground v.1.15,2013-08-24 12:13:00,
2013-08-24 05:19:00,52.6,48.2,29.80,SSE,163,0.0,0.0,85,0.00,,,0.00,Wunderground v.1.15,2013-08-24 12:19:00,
2013-08-24 05:25:00,52.5,48.1,29.80,SSE,163,0.0,0.0,85,0.00,,,0.00,Wunderground v.1.15,2013-08-24 12:25:00,
2013-08-24 05:31:00,52.4,48.0,29.80,SSE,163,0.0,0.0,85,0.00,,,0.00,Wunderground v.1.15,2013-08-24 12:31:00,
2013-08-24 05:37:00,52.2,47.8,29.80,SSE,163,0.0,0.0,85,0.00,,,0.00,Wunderground v.1.15,2013-08-24 12:37:00,
2013-08-24 05:43:00,52.1,47.7,29.80,SSE,163,0.0,0.0,85,0.00,,,0.00,Wunderground v.1.15,2013-08-24 12:43:00,
2013-08-24 05:49:00,52.1,47.7,29.80,SSE,163,0.0,0.0,85,0.00,,,0.00,Wunderground v.1.15,2013-08-24 12:49:00,
2013-08-24 05:55:00,52.0,47.9,29.80,SSE,163,0.0,0.0,86,0.00,,,0.00,Wunderground v.1.15,2013-08-24 12:55:00,
2013-08-24 06:01:00,51.9,47.8,29.80,SSE,163,0.0,0.0,86,0.00,,,0.00,Wunderground v.1.15,2013-08-24 13:01:00,
2013-08-24 06:07:00,51.8,47.7,29.80,SSE,163,0.0,0.0,86,0.00,,,0.00,Wunderground v.1.15,2013-08-24 13:07:00,
2013-08-24 06:13:00,51.7,47.6,29.81,SSE,163,0.0,0.0,86,0.00,,,0.00,Wunderground v.1.15,2013-08-24 13:13:00,
2013-08-24 06:19:00,51.6,47.5,29.81,SSE,163,0.0,0.0,86,0.00,,,0.00,Wunderground v.1.15,2013-08-24 13:19:00,
2013-08-24 06:25:00,51.5,47.5,29.81,SSE,163,0.0,0.0,86,0.00,,,0.00,Wunderground v.1.15,2013-08-24 13:25:00,
2013-08-24 06:31:00,51.4,47.4,29.81,SSE,163,0.0,0.0,86,0.00,,,0.00,Wunderground v.1.15,2013-08-24 13:31:00,
2013-08-24 06:37:00,51.3,47.3,29.81,SSE,163,0.0,0.0,86,0.00,,,0.00,Wunderground v.1.15,2013-08-24 13:37:00,
2013-08-24 06:43:00,51.2,47.2,29.82,SSE,163,0.0,0.0,86,0.00,,,0.00,Wunderground v.1.15,2013-08-24 13:43:00,
2013-08-24 06:49:00,51.1,47.1,29.82,SSE,163,0.0,0.0,86,0.00,,,0.00,Wunderground v.1.15,2013-08-24 13:49:00,
2013-08-24 06:55:00,51.1,47.1,29.82,SSE,163,0.0,0.0,86,0.00,,,0.00,Wunderground v.1.15,2013-08-24 13:55:00,
2013-08-24 07:01:00,51.1,47.1,29.82,SSE,163,0.0,0.0,86,0.00,,,0.00,Wunderground v.1.15,2013-08-24 14:01:00,
2013-08-24 07:07:00,51.2,47.5,29.82,SSE,163,0.0,0.0,87,0.00,,,0.00,Wunderground v.1.15,2013-08-24 14:07:00,
2013-08-24 07:15:00,51.4,47.7,29.82,SSE,163,0.0,0.0,87,0.00,,,0.00,Wunderground v.1.15,2013-08-24 14:15:00,
2013-08-24 07:21:00,51.4,47.7,29.83,SSE,163,0.0,0.0,87,0.00,,,0.00,Wunderground v.1.15,2013-08-24 14:21:00,
2013-08-24 07:27:00,51.7,48.0,29.83,SSE,163,0.0,0.0,87,0.00,,,0.00,Wunderground v.1.15,2013-08-24 14:27:00,
2013-08-24 07:33:00,52.2,48.4,29.83,SSE,163,0.0,0.0,87,0.00,,,0.00,Wunderground v.1.15,2013-08-24 14:33:00,
2013-08-24 07:39:00,52.6,48.8,29.83,SSE,163,0.0,0.0,87,0.00,,,0.00,Wunderground v.1.15,2013-08-24 14:39:00,
2013-08-24 07:45:00,52.9,49.1,29.83,SSE,163,0.0,0.0,87,0.00,,,0.00,Wunderground v.1.15,2013-08-24 14:45:00,
2013-08-24 07:51:00,53.5,50.0,29.83,SSE,163,0.0,0.0,88,0.00,,,0.00,Wunderground v.1.15,2013-08-24 14:51:00,
2013-08-24 07:57:00,54.1,50.6,29.83,SSE,163,0.0,0.0,88,0.00,,,0.00,Wunderground v.1.15,2013-08-24 14:57:00,
2013-08-24 08:03:00,54.7,50.9,29.83,SSE,163,0.0,0.0,87,0.00,,,0.00,Wunderground v.1.15,2013-08-24 15:03:00,
2013-08-24 08:09:00,55.2,51.4,29.83,SSE,163,0.0,0.0,87,0.00,,,0.00,Wunderground v.1.15,2013-08-24 15:09:00,
2013-08-24 08:15:00,55.8,52.0,29.83,SSE,163,0.0,0.0,87,0.00,,,0.00,Wunderground v.1.15,2013-08-24 15:15:00,
2013-08-24 08:21:00,56.8,52.7,29.83,SSE,163,0.0,0.0,86,0.00,,,0.00,Wunderground v.1.15,2013-08-24 15:21:00,
2013-08-24 08:27:00,57.7,53.2,29.83,SSE,163,0.0,0.0,85,0.00,,,0.00,Wunderground v.1.15,2013-08-24 15:27:00,
2013-08-24 08:33:00,58.5,53.7,29.83,SSE,163,0.0,0.0,84,0.00,,,0.00,Wunderground v.1.15,2013-08-24 15:33:00,
2013-08-24 08:39:00,59.1,53.6,29.83,SSE,163,0.0,0.0,82,0.00,,,0.00,Wunderground v.1.15,2013-08-24 15:39:00,
2013-08-24 08:45:00,59.8,54.0,29.83,SSE,163,0.0,0.0,81,0.00,,,0.00,Wunderground v.1.15,2013-08-24 15:45:00,
2013-08-24 08:51:00,60.0,53.5,29.83,SSE,163,0.0,0.0,79,0.00,,,0.00,Wunderground v.1.15,2013-08-24 15:51:00,
2013-08-24 08:57:00,60.5,53.6,29.83,SSE,163,0.0,0.0,78,0.00,,,0.00,Wunderground v.1.15,2013-08-24 15:57:00,
2013-08-24 09:03:00,61.5,54.2,29.83,SSE,163,0.0,0.0,77,0.00,,,0.00,Wunderground v.1.15,2013-08-24 16:03:00,
2013-08-24 09:09:00,62.8,54.8,29.83,SSE,163,0.0,1.0,75,0.00,,,0.00,Wunderground v.1.15,2013-08-24 16:09:00,
2013-08-24 09:15:00,64.0,54.8,29.83,SSE,163,0.0,0.0,72,0.00,,,0.00,Wunderground v.1.15,2013-08-24 16:15:00,
2013-08-24 09:21:00,65.0,55.4,29.83,SSE,163,0.0,0.0,71,0.00,,,0.00,Wunderground v.1.15,2013-08-24 16:21:00,
2013-08-24 09:27:00,65.8,54.5,29.83,SSE,163,0.0,0.0,67,0.00,,,0.00,Wunderground v.1.15,2013-08-24 16:27:00,
2013-08-24 09:33:00,66.2,55.3,29.83,SSE,163,0.0,0.0,68,0.00,,,0.00,Wunderground v.1.15,2013-08-24 16:33:00,
2013-08-24 09:39:00,66.8,55.1,29.83,SSE,163,0.0,0.0,66,0.00,,,0.00,Wunderground v.1.15,2013-08-24 16:39:00,
2013-08-24 09:45:00,67.0,54.0,29.83,SSE,163,0.0,1.0,63,0.00,,,0.00,Wunderground v.1.15,2013-08-24 16:45:00,
2013-08-24 09:51:00,66.7,55.0,29.83,SSE,163,0.0,0.0,66,0.00,,,0.00,Wunderground v.1.15,2013-08-24 16:51:00,
2013-08-24 09:57:00,67.3,55.1,29.83,SSE,163,0.0,0.0,65,0.00,,,0.00,Wunderground v.1.15,2013-08-24 16:57:00,
2013-08-24 10:03:00,68.0,54.9,29.83,SSE,163,0.0,0.0,63,0.00,,,0.00,Wunderground v.1.15,2013-08-24 17:03:00,
2013-08-24 10:09:00,68.5,54.5,29.83,SE,126,0.0,0.0,61,0.00,,,0.00,Wunderground v.1.15,2013-08-24 17:09:00,
2013-08-24 10:15:00,69.1,56.0,29.83,SE,127,0.0,0.0,63,0.00,,,0.00,Wunderground v.1.15,2013-08-24 17:15:00,
2013-08-24 10:21:00,70.2,56.1,29.84,SE,128,0.0,0.0,61,0.00,,,0.00,Wunderground v.1.15,2013-08-24 17:21:00,
2013-08-24 10:27:00,71.4,56.3,29.84,SE,128,0.0,0.0,59,0.00,,,0.00,Wunderground v.1.15,2013-08-24 17:27:00,
2013-08-24 10:33:00,72.4,56.3,29.84,SE,128,0.0,0.0,57,0.00,,,0.00,Wunderground v.1.15,2013-08-24 17:33:00,
2013-08-24 10:39:00,73.1,57.0,29.83,ESE,119,0.0,0.0,57,0.00,,,0.00,Wunderground v.1.15,2013-08-24 17:39:00,
2013-08-24 10:45:00,73.7,57.0,29.84,ESE,120,0.0,0.0,56,0.00,,,0.00,Wunderground v.1.15,2013-08-24 17:45:00,
2013-08-24 10:51:00,74.6,56.9,29.84,ESE,120,0.0,0.0,54,0.00,,,0.00,Wunderground v.1.15,2013-08-24 17:51:00,
2013-08-24 10:57:00,75.3,57.0,29.84,SSE,161,0.0,0.0,53,0.00,,,0.00,Wunderground v.1.15,2013-08-24 17:57:00,
2013-08-24 11:03:00,76.0,57.1,29.84,NNE,27,0.0,0.0,52,0.00,,,0.00,Wunderground v.1.15,2013-08-24 18:03:00,
2013-08-24 11:09:00,76.7,57.7,29.84,NNE,27,0.0,1.0,52,0.00,,,0.00,Wunderground v.1.15,2013-08-24 18:09:00,
2013-08-24 11:15:00,77.5,56.8,29.84,NNE,28,0.0,0.0,49,0.00,,,0.00,Wunderground v.1.15,2013-08-24 18:15:00,
2013-08-24 11:21:00,77.9,56.0,29.84,NNE,27,0.0,2.0,47,0.00,,,0.00,Wunderground v.1.15,2013-08-24 18:21:00,
2013-08-24 11:27:00,76.7,56.7,29.83,North,349,0.0,2.0,50,0.00,,,0.00,Wunderground v.1.15,2013-08-24 18:27:00,
2013-08-24 11:33:00,76.6,56.6,29.83,SW,228,0.0,0.0,50,0.00,,,0.00,Wunderground v.1.15,2013-08-24 18:33:00,
2013-08-24 11:39:00,77.3,57.2,29.83,SSW,212,0.0,1.0,50,0.00,,,0.00,Wunderground v.1.15,2013-08-24 18:39:00,
2013-08-24 11:45:00,78.7,57.9,29.83,SSW,212,0.0,0.0,49,0.00,,,0.00,Wunderground v.1.15,2013-08-24 18:45:00,
2013-08-24 11:51:00,79.1,57.7,29.82,SSW,212,0.0,0.0,48,0.00,,,0.00,Wunderground v.1.15,2013-08-24 18:51:00,
2013-08-24 11:57:00,79.3,57.9,29.82,SW,215,0.0,0.0,48,0.00,,,0.00,Wunderground v.1.15,2013-08-24 18:57:00,
2013-08-24 12:08:00,79.6,57.6,29.82,SW,215,0.0,0.0,47,0.00,,,0.00,Wunderground v.1.15,2013-08-24 19:08:00,
2013-08-24 12:15:00,80.2,57.5,29.81,SW,215,0.0,0.0,46,0.00,,,0.00,Wunderground v.1.15,2013-08-24 19:15:00,
2013-08-24 12:20:00,79.8,58.4,29.81,SSW,206,0.0,0.0,48,0.00,,,0.00,Wunderground v.1.15,2013-08-24 19:20:00,
2013-08-24 12:26:00,79.4,58.0,29.81,SSW,205,0.0,0.0,48,0.00,,,0.00,Wunderground v.1.15,2013-08-24 19:26:00,
2013-08-24 12:32:00,79.2,57.8,29.81,SSW,204,0.0,0.0,48,0.00,,,0.00,Wunderground v.1.15,2013-08-24 19:32:00,
2013-08-24 12:38:00,79.0,57.6,29.81,SSW,202,0.0,1.0,48,0.00,,,0.00,Wunderground v.1.15,2013-08-24 19:38:00,
2013-08-24 12:44:00,79.2,58.4,29.81,SSW,205,0.0,0.0,49,0.00,,,0.00,Wunderground v.1.15,2013-08-24 19:44:00,
2013-08-24 12:50:00,79.5,58.1,29.80,SSW,202,0.0,0.0,48,0.00,,,0.00,Wunderground v.1.15,2013-08-24 19:50:00,
2013-08-24 12:55:00,79.8,57.8,29.80,SSW,204,0.0,0.0,47,0.00,,,0.00,Wunderground v.1.15,2013-08-24 19:55:00,
2013-08-24 13:01:00,79.9,57.3,29.80,SSW,202,0.0,0.0,46,0.00,,,0.00,Wunderground v.1.15,2013-08-24 20:01:00,
2013-08-24 13:08:00,80.0,57.4,29.80,South,186,0.0,0.0,46,0.00,,,0.00,Wunderground v.1.15,2013-08-24 20:08:00,
2013-08-24 13:14:00,80.2,56.9,29.79,South,186,0.0,1.0,45,0.00,,,0.00,Wunderground v.1.15,2013-08-24 20:14:00,
2013-08-24 13:20:00,80.7,58.0,29.79,WSW,246,0.0,1.0,46,0.00,,,0.00,Wunderground v.1.15,2013-08-24 20:20:00,
2013-08-24 13:25:00,81.4,59.2,29.79,SW,232,0.0,1.0,47,0.00,,,0.00,Wunderground v.1.15,2013-08-24 20:25:00,
2013-08-24 13:31:00,82.1,58.0,29.79,WNW,300,0.0,1.0,44,0.00,,,0.00,Wunderground v.1.15,2013-08-24 20:31:00,
2013-08-24 13:38:00,82.5,58.4,29.79,SSW,204,0.0,1.0,44,0.00,,,0.00,Wunderground v.1.15,2013-08-24 20:38:00,
2013-08-24 13:44:00,82.8,58.7,29.79,SSW,199,0.0,0.0,44,0.00,,,0.00,Wunderground v.1.15,2013-08-24 20:44:00,
2013-08-24 13:50:00,83.3,59.1,29.78,South,182,0.0,0.0,44,0.00,,,0.00,Wunderground v.1.15,2013-08-24 20:50:00,
2013-08-24 13:56:00,84.2,57.9,29.78,SW,233,0.0,3.0,41,0.00,,,0.00,Wunderground v.1.15,2013-08-24 20:56:00,
2013-08-24 14:01:00,84.8,59.2,29.78,South,169,1.0,1.0,42,0.00,,,0.00,Wunderground v.1.15,2013-08-24 21:01:00,
2013-08-24 14:08:00,84.9,58.6,29.78,South,190,1.0,4.0,41,0.00,,,0.00,Wunderground v.1.15,2013-08-24 21:08:00,
2013-08-24 14:14:00,84.8,58.5,29.78,SSW,199,2.0,5.0,41,0.00,,,0.00,Wunderground v.1.15,2013-08-24 21:14:00,
2013-08-24 14:20:00,85.2,58.8,29.78,SSW,198,1.0,5.0,41,0.00,,,0.00,Wunderground v.1.15,2013-08-24 21:20:00,
2013-08-24 14:26:00,85.5,59.1,29.78,South,186,1.0,3.0,41,0.00,,,0.00,Wunderground v.1.15,2013-08-24 21:26:00,
2013-08-24 14:31:00,86.1,59.0,29.78,SW,221,1.0,1.0,40,0.00,,,0.00,Wunderground v.1.15,2013-08-24 21:31:00,
2013-08-24 14:38:00,86.8,59.6,29.78,SSW,202,0.0,1.0,40,0.00,,,0.00,Wunderground v.1.15,2013-08-24 21:38:00,
2013-08-24 14:43:00,87.0,59.8,29.78,SSW,198,0.0,1.0,40,0.00,,,0.00,Wunderground v.1.15,2013-08-24 21:43:00,
2013-08-24 14:49:00,86.6,59.4,29.78,West,261,1.0,1.0,40,0.00,,,0.00,Wunderground v.1.15,2013-08-24 21:49:00,
2013-08-24 14:55:00,86.0,60.2,29.77,WSW,257,0.0,1.0,42,0.00,,,0.00,Wunderground v.1.15,2013-08-24 21:55:00,
2013-08-24 15:01:00,86.1,61.0,29.77,WSW,257,0.0,0.0,43,0.00,,,0.00,Wunderground v.1.15,2013-08-24 22:01:00,
2013-08-24 15:08:00,86.6,60.8,29.77,SW,223,1.0,1.0,42,0.00,,,0.00,Wunderground v.1.15,2013-08-24 22:08:00,
2013-08-24 15:14:00,87.7,61.1,29.77,SW,220,0.0,1.0,41,0.00,,,0.00,Wunderground v.1.15,2013-08-24 22:14:00,
2013-08-24 15:19:00,88.4,60.3,29.77,SSW,193,1.0,2.0,39,0.00,,,0.00,Wunderground v.1.15,2013-08-24 22:19:00,
2013-08-24 15:25:00,88.4,61.0,29.77,SSW,208,1.0,3.0,40,0.00,,,0.00,Wunderground v.1.15,2013-08-24 22:25:00,
2013-08-24 15:32:00,88.5,59.7,29.76,SSW,210,1.0,1.0,38,0.00,,,0.00,Wunderground v.1.15,2013-08-24 22:32:00,
2013-08-24 15:38:00,88.6,60.5,29.77,South,190,1.0,1.0,39,0.00,,,0.00,Wunderground v.1.15,2013-08-24 22:38:00,
2013-08-24 15:44:00,88.6,60.5,29.76,SW,215,1.0,1.0,39,0.00,,,0.00,Wunderground v.1.15,2013-08-24 22:44:00,
2013-08-24 15:50:00,88.3,59.5,29.76,SW,217,1.0,5.0,38,0.00,,,0.00,Wunderground v.1.15,2013-08-24 22:50:00,
2013-08-24 15:55:00,87.1,58.4,29.76,SW,236,2.0,2.0,38,0.00,,,0.00,Wunderground v.1.15,2013-08-24 22:55:00,
2013-08-24 16:01:00,86.0,59.6,29.77,SSW,205,2.0,2.0,41,0.00,,,0.00,Wunderground v.1.15,2013-08-24 23:01:00,
2013-08-24 16:08:00,84.9,58.6,29.77,South,180,3.0,4.0,41,0.00,,,0.00,Wunderground v.1.15,2013-08-24 23:08:00,
2013-08-24 16:13:00,83.8,58.9,29.76,South,180,3.0,9.0,43,0.00,,,0.00,Wunderground v.1.15,2013-08-24 23:13:00,
2013-08-24 16:19:00,83.1,58.3,29.76,SW,221,2.0,9.0,43,0.00,,,0.00,Wunderground v.1.15,2013-08-24 23:19:00,
2013-08-24 16:25:00,83.0,58.2,29.76,SW,232,2.0,3.0,43,0.00,,,0.00,Wunderground v.1.15,2013-08-24 23:25:00,
2013-08-24 16:31:00,82.7,57.9,29.76,WSW,239,3.0,3.0,43,0.00,,,0.00,Wunderground v.1.15,2013-08-24 23:31:00,
2013-08-24 16:38:00,82.6,58.5,29.77,SSW,193,2.0,6.0,44,0.00,,,0.00,Wunderground v.1.15,2013-08-24 23:38:00,
2013-08-24 16:43:00,82.7,58.6,29.77,SSW,213,2.0,3.0,44,0.00,,,0.00,Wunderground v.1.15,2013-08-24 23:43:00,
2013-08-24 16:49:00,82.7,58.6,29.77,SW,219,1.0,4.0,44,0.00,,,0.00,Wunderground v.1.15,2013-08-24 23:49:00,
2013-08-24 16:55:00,82.4,58.3,29.77,SSW,200,2.0,5.0,44,0.00,,,0.00,Wunderground v.1.15,2013-08-24 23:55:00,
2013-08-24 17:01:00,82.1,58.7,29.77,South,177,1.0,4.0,45,0.00,,,0.00,Wunderground v.1.15,2013-08-25 00:01:00,
2013-08-24 17:08:00,82.0,58.6,29.77,SW,223,1.0,5.0,45,0.00,,,0.00,Wunderground v.1.15,2013-08-25 00:08:00,
2013-08-24 17:13:00,82.0,58.6,29.77,SSW,209,2.0,3.0,45,0.00,,,0.00,Wunderground v.1.15,2013-08-25 00:13:00,
2013-08-24 17:19:00,82.3,58.2,29.77,WSW,250,2.0,7.0,44,0.00,,,0.00,Wunderground v.1.15,2013-08-25 00:19:00,
2013-08-24 17:25:00,82.2,58.1,29.77,SSW,205,2.0,3.0,44,0.00,,,0.00,Wunderground v.1.15,2013-08-25 00:25:00,
2013-08-24 17:31:00,81.9,58.5,29.77,SSW,196,2.0,2.0,45,0.00,,,0.00,Wunderground v.1.15,2013-08-25 00:31:00,
2013-08-24 17:38:00,81.4,58.6,29.77,WSW,245,2.0,2.0,46,0.00,,,0.00,Wunderground v.1.15,2013-08-25 00:38:00,
2013-08-24 17:43:00,81.0,58.3,29.77,SW,221,2.0,2.0,46,0.00,,,0.00,Wunderground v.1.15,2013-08-25 00:43:00,
2013-08-24 17:49:00,80.8,58.1,29.77,SSW,207,2.0,2.0,46,0.00,,,0.00,Wunderground v.1.15,2013-08-25 00:49:00,
2013-08-24 17:55:00,80.7,58.0,29.77,WSW,238,1.0,3.0,46,0.00,,,0.00,Wunderground v.1.15,2013-08-25 00:55:00,
2013-08-24 18:03:00,80.1,58.0,29.77,SSE,148,1.0,2.0,47,0.00,,,0.00,Wunderground v.1.15,2013-08-25 01:03:00,
2013-08-24 18:09:00,79.4,58.0,29.77,South,173,1.0,2.0,48,0.00,,,0.00,Wunderground v.1.15,2013-08-25 01:09:00,
2013-08-24 18:15:00,78.8,57.4,29.77,South,177,1.0,1.0,48,0.00,,,0.00,Wunderground v.1.15,2013-08-25 01:15:00,
2013-08-24 18:21:00,78.3,57.6,29.77,South,186,0.0,0.0,49,0.00,,,0.00,Wunderground v.1.15,2013-08-25 01:21:00,
2013-08-24 18:27:00,77.8,57.1,29.77,SW,221,0.0,0.0,49,0.00,,,0.00,Wunderground v.1.15,2013-08-25 01:27:00,
2013-08-24 18:33:00,77.4,57.3,29.77,SSE,150,0.0,1.0,50,0.00,,,0.00,Wunderground v.1.15,2013-08-25 01:33:00,
2013-08-24 18:39:00,76.8,57.3,29.77,SW,235,1.0,4.0,51,0.00,,,0.00,Wunderground v.1.15,2013-08-25 01:39:00,
2013-08-24 18:45:00,76.3,57.4,29.77,South,180,0.0,1.0,52,0.00,,,0.00,Wunderground v.1.15,2013-08-25 01:45:00,
2013-08-24 18:51:00,75.7,57.4,29.77,South,185,1.0,1.0,53,0.00,,,0.00,Wunderground v.1.15,2013-08-25 01:51:00,
2013-08-24 18:57:00,75.3,57.5,29.77,NNE,12,1.0,1.0,54,0.00,,,0.00,Wunderground v.1.15,2013-08-25 01:57:00,
2013-08-24 19:03:00,75.0,57.2,29.77,South,185,1.0,3.0,54,0.00,,,0.00,Wunderground v.1.15,2013-08-25 02:03:00,
2013-08-24 19:09:00,74.7,56.9,29.77,SE,134,1.0,10.0,54,0.00,,,0.00,Wunderground v.1.15,2013-08-25 02:09:00,
2013-08-24 19:15:00,74.3,57.1,29.77,WSW,245,1.0,1.0,55,0.00,,,0.00,Wunderground v.1.15,2013-08-25 02:15:00,
2013-08-24 19:21:00,73.9,56.7,29.77,West,266,1.0,1.0,55,0.00,,,0.00,Wunderground v.1.15,2013-08-25 02:21:00,
2013-08-24 19:27:00,73.4,56.7,29.78,NW,321,1.0,2.0,56,0.00,,,0.00,Wunderground v.1.15,2013-08-25 02:27:00,
2013-08-24 19:33:00,73.0,56.9,29.78,NW,321,1.0,1.0,57,0.00,,,0.00,Wunderground v.1.15,2013-08-25 02:33:00,
2013-08-24 19:39:00,72.6,56.5,29.78,WNW,298,1.0,1.0,57,0.00,,,0.00,Wunderground v.1.15,2013-08-25 02:39:00,
2013-08-24 19:45:00,72.2,56.6,29.78,NW,325,1.0,1.0,58,0.00,,,0.00,Wunderground v.1.15,2013-08-25 02:45:00,
2013-08-24 19:51:00,71.7,56.1,29.79,North,355,1.0,1.0,58,0.00,,,0.00,Wunderground v.1.15,2013-08-25 02:51:00,
2013-08-24 19:57:00,71.3,56.2,29.79,NNW,335,2.0,3.0,59,0.00,,,0.00,Wunderground v.1.15,2013-08-25 02:57:00,
2013-08-24 20:03:00,71.0,55.9,29.79,NNW,329,1.0,1.0,59,0.00,,,0.00,Wunderground v.1.15,2013-08-25 03:03:00,
2013-08-24 20:09:00,70.7,56.1,29.79,SSE,150,1.0,2.0,60,0.00,,,0.00,Wunderground v.1.15,2013-08-25 03:09:00,
2013-08-24 20:15:00,70.4,56.3,29.80,NNW,331,2.0,3.0,61,0.00,,,0.00,Wunderground v.1.15,2013-08-25 03:15:00,
2013-08-24 20:21:00,70.2,56.1,29.80,North,5,1.0,1.0,61,0.00,,,0.00,Wunderground v.1.15,2013-08-25 03:21:00,
2013-08-24 20:27:00,70.0,55.9,29.80,NNW,348,1.0,2.0,61,0.00,,,0.00,Wunderground v.1.15,2013-08-25 03:27:00,
2013-08-24 20:33:00,69.8,56.2,29.80,NNW,333,2.0,2.0,62,0.00,,,0.00,Wunderground v.1.15,2013-08-25 03:33:00,
2013-08-24 20:39:00,69.7,56.1,29.80,NNW,330,3.0,3.0,62,0.00,,,0.00,Wunderground v.1.15,2013-08-25 03:39:00,
2013-08-24 20:45:00,69.6,56.0,29.81,NW,326,2.0,3.0,62,0.00,,,0.00,Wunderground v.1.15,2013-08-25 03:45:00,
2013-08-24 20:51:00,69.4,56.3,29.81,WNW,303,0.0,0.0,63,0.00,,,0.00,Wunderground v.1.15,2013-08-25 03:51:00,
2013-08-24 20:57:00,69.2,56.1,29.81,WNW,293,1.0,1.0,63,0.00,,,0.00,Wunderground v.1.15,2013-08-25 03:57:00,
2013-08-24 21:01:00,69.2,56.1,29.81,WNW,293,1.0,1.0,63,0.00,,,0.00,Wunderground v.1.15,2013-08-25 04:01:00,
2013-08-24 21:03:00,69.1,56.0,29.81,WNW,293,1.0,1.0,63,0.00,,,0.00,Wunderground v.1.15,2013-08-25 04:03:00,
2013-08-24 21:05:00,69.0,55.9,29.81,WNW,292,0.0,1.0,63,0.00,,,0.00,Wunderground v.1.15,2013-08-25 04:05:00,
2013-08-24 21:09:00,68.9,55.8,29.81,WNW,294,0.0,1.0,63,0.00,,,0.00,Wunderground v.1.15,2013-08-25 04:09:00,
2013-08-24 21:15:00,68.7,56.0,29.81,WNW,298,0.0,3.0,64,0.00,,,0.00,Wunderground v.1.15,2013-08-25 04:15:00,
2013-08-24 21:19:00,68.6,55.9,29.81,WNW,298,0.0,3.0,64,0.00,,,0.00,Wunderground v.1.15,2013-08-25 04:19:00,
2013-08-24 21:25:00,68.5,55.8,29.81,WNW,298,0.0,0.0,64,0.00,,,0.00,Wunderground v.1.15,2013-08-25 04:25:00,
2013-08-24 21:31:00,68.4,56.2,29.81,WNW,298,0.0,0.0,65,0.00,,,0.00,Wunderground v.1.15,2013-08-25 04:31:00,
2013-08-24 21:37:00,68.2,56.0,29.82,WNW,298,0.0,1.0,65,0.00,,,0.00,Wunderground v.1.15,2013-08-25 04:37:00,
2013-08-24 21:43:00,68.1,55.9,29.82,WNW,298,0.0,0.0,65,0.00,,,0.00,Wunderground v.1.15,2013-08-25 04:43:00,
2013-08-24 21:49:00,68.0,56.2,29.82,WNW,298,0.0,1.0,66,0.00,,,0.00,Wunderground v.1.15,2013-08-25 04:49:00,
2013-08-24 21:55:00,67.9,56.1,29.82,WNW,298,0.0,1.0,66,0.00,,,0.00,Wunderground v.1.15,2013-08-25 04:55:00,
2013-08-24 22:01:00,67.8,56.0,29.83,WNW,298,0.0,0.0,66,0.00,,,0.00,Wunderground v.1.15,2013-08-25 05:01:00,
2013-08-24 22:07:00,67.6,55.8,29.83,WNW,298,0.0,1.0,66,0.00,,,0.00,Wunderground v.1.15,2013-08-25 05:07:00,
2013-08-24 22:13:00,67.4,56.1,29.83,WNW,298,0.0,0.0,67,0.00,,,0.00,Wunderground v.1.15,2013-08-25 05:13:00,
2013-08-24 22:19:00,67.2,55.9,29.83,WNW,298,0.0,0.0,67,0.00,,,0.00,Wunderground v.1.15,2013-08-25 05:19:00,
2013-08-24 22:25:00,67.0,56.1,29.83,WNW,298,0.0,0.0,68,0.00,,,0.00,Wunderground v.1.15,2013-08-25 05:25:00,
2013-08-24 22:31:00,66.8,55.9,29.83,WNW,298,0.0,0.0,68,0.00,,,0.00,Wunderground v.1.15,2013-08-25 05:31:00,
2013-08-24 22:37:00,66.6,55.7,29.82,WNW,298,0.0,0.0,68,0.00,,,0.00,Wunderground v.1.15,2013-08-25 05:37:00,
2013-08-24 22:43:00,66.4,55.9,29.83,WNW,298,0.0,0.0,69,0.00,,,0.00,Wunderground v.1.15,2013-08-25 05:43:00,
2013-08-24 22:49:00,66.3,55.8,29.83,WNW,298,0.0,0.0,69,0.00,,,0.00,Wunderground v.1.15,2013-08-25 05:49:00,
2013-08-24 22:55:00,66.1,56.0,29.83,WNW,298,0.0,0.0,70,0.00,,,0.00,Wunderground v.1.15,2013-08-25 05:55:00,
2013-08-24 23:01:00,65.9,55.8,29.83,WNW,298,0.0,0.0,70,0.00,,,0.00,Wunderground v.1.15,2013-08-25 06:01:00,
2013-08-24 23:07:00,65.7,56.0,29.83,WNW,298,0.0,0.0,71,0.00,,,0.00,Wunderground v.1.15,2013-08-25 06:07:00,
2013-08-24 23:13:00,65.6,55.9,29.83,WNW,298,0.0,0.0,71,0.00,,,0.00,Wunderground v.1.15,2013-08-25 06:13:00,
2013-08-24 23:19:00,65.5,55.8,29.83,WNW,298,0.0,0.0,71,0.00,,,0.00,Wunderground v.1.15,2013-08-25 06:19:00,
2013-08-24 23:25:00,65.4,55.7,29.83,WNW,298,0.0,0.0,71,0.00,,,0.00,Wunderground v.1.15,2013-08-25 06:25:00,
2013-08-24 23:31:00,65.3,56.0,29.83,WNW,298,0.0,0.0,72,0.00,,,0.00,Wunderground v.1.15,2013-08-25 06:31:00,
2013-08-24 23:37:00,65.3,55.7,29.84,WNW,298,0.0,0.0,71,0.00,,,0.00,Wunderground v.1.15,2013-08-25 06:37:00,
2013-08-24 23:43:00,65.2,55.9,29.84,WNW,298,0.0,0.0,72,0.00,,,0.00,Wunderground v.1.15,2013-08-25 06:43:00,
2013-08-24 23:49:00,65.1,55.8,29.83,WNW,298,0.0,0.0,72,0.00,,,0.00,Wunderground v.1.15,2013-08-25 06:49:00,
2013-08-24 23:55:00,65.0,55.8,29.84,WNW,298,0.0,0.0,72,0.00,,,0.00,Wunderground v.1.15,2013-08-25 06:55:00,